sensor_id;sensor_type;location;lat;lon;timestamp;P1;durP1;ratioP1;P2;durP2;ratioP2
18783;SDS011;9520;50.954;6.968;2023-04-30T00:00:03;5.47;;;2.80;;
18783;SDS011;9520;50.954;6.968;2023-04-30T00:00:31;4.57;;;2.58;;
18783;SDS011;9520;50.954;6.968;2023-04-30T00:00:53;4.60;;;2.75;;
18783;SDS011;9520;50.954;6.968;2023-04-30T00:01:15;3.88;;;2.53;;
18783;SDS011;9520;50.954;6.968;2023-04-30T00:01:39;3.00;;;2.20;;
18783;SDS011;9520;50.954;6.968;2023-04-30T00:02:03;4.53;;;2.50;;
18783;SDS011;9520;50.954;6.968;2023-04-30T00:02:26;6.55;;;3.00;;
18783;SDS011;9520;50.954;6.968;2023-04-30T00:02:47;4.05;;;2.47;;
18783;SDS011;9520;50.954;6.968;2023-04-30T00:03:09;4.88;;;2.65;;
18783;SDS011;9520;50.954;6.968;2023-04-30T00:03:33;5.07;;;2.90;;
18783;SDS011;9520;50.954;6.968;2023-04-30T00:03:56;3.10;;;2.35;;
18783;SDS011;9520;50.954;6.968;2023-04-30T00:04:18;4.00;;;2.30;;
18783;SDS011;9520;50.954;6.968;2023-04-30T00:04:41;5.63;;;2.67;;
18783;SDS011;9520;50.954;6.968;2023-04-30T00:05:07;6.30;;;2.33;;
18783;SDS011;9520;50.954;6.968;2023-04-30T00:05:31;4.35;;;2.42;;
18783;SDS011;9520;50.954;6.968;2023-04-30T00:05:53;4.40;;;2.47;;
18783;SDS011;9520;50.954;6.968;2023-04-30T00:06:18;4.97;;;2.35;;
18783;SDS011;9520;50.954;6.968;2023-04-30T00:06:42;3.78;;;2.03;;
18783;SDS011;9520;50.954;6.968;2023-04-30T00:07:06;4.60;;;2.33;;
18783;SDS011;9520;50.954;6.968;2023-04-30T00:07:30;8.73;;;2.17;;
18783;SDS011;9520;50.954;6.968;2023-04-30T00:07:53;4.35;;;2.50;;
18783;SDS011;9520;50.954;6.968;2023-04-30T00:08:15;4.90;;;2.63;;
18783;SDS011;9520;50.954;6.968;2023-04-30T00:08:39;4.22;;;2.60;;
18783;SDS011;9520;50.954;6.968;2023-04-30T00:09:03;3.45;;;2.55;;
18783;SDS011;9520;50.954;6.968;2023-04-30T00:09:25;3.83;;;2.70;;
18783;SDS011;9520;50.954;6.968;2023-04-30T00:09:50;3.33;;;2.03;;
18783;SDS011;9520;50.954;6.968;2023-04-30T00:10:17;2.83;;;2.20;;
18783;SDS011;9520;50.954;6.968;2023-04-30T00:10:41;4.85;;;2.75;;
18783;SDS011;9520;50.954;6.968;2023-04-30T00:11:04;6.38;;;2.63;;
18783;SDS011;9520;50.954;6.968;2023-04-30T00:11:26;7.03;;;2.35;;
18783;SDS011;9520;50.954;6.968;2023-04-30T00:11:48;3.75;;;2.13;;
18783;SDS011;9520;50.954;6.968;2023-04-30T00:12:13;4.15;;;2.78;;
18783;SDS011;9520;50.954;6.968;2023-04-30T00:12:36;4.40;;;2.30;;
18783;SDS011;9520;50.954;6.968;2023-04-30T00:12:59;2.63;;;1.92;;
18783;SDS011;9520;50.954;6.968;2023-04-30T00:13:27;3.97;;;2.53;;
18783;SDS011;9520;50.954;6.968;2023-04-30T00:13:52;4.57;;;2.35;;
18783;SDS011;9520;50.954;6.968;2023-04-30T00:14:14;3.83;;;2.40;;
18783;SDS011;9520;50.954;6.968;2023-04-30T00:14:38;6.88;;;2.78;;
18783;SDS011;9520;50.954;6.968;2023-04-30T00:15:02;11.55;;;2.72;;
18783;SDS011;9520;50.954;6.968;2023-04-30T00:15:28;5.95;;;2.63;;
18783;SDS011;9520;50.954;6.968;2023-04-30T00:15:50;3.70;;;2.10;;
18783;SDS011;9520;50.954;6.968;2023-04-30T00:16:14;3.92;;;2.00;;
18783;SDS011;9520;50.954;6.968;2023-04-30T00:16:37;4.40;;;2.30;;
18783;SDS011;9520;50.954;6.968;2023-04-30T00:17:01;6.00;;;2.28;;
18783;SDS011;9520;50.954;6.968;2023-04-30T00:17:24;3.20;;;2.20;;
18783;SDS011;9520;50.954;6.968;2023-04-30T00:17:48;3.92;;;2.35;;
18783;SDS011;9520;50.954;6.968;2023-04-30T00:18:13;4.35;;;2.05;;
18783;SDS011;9520;50.954;6.968;2023-04-30T00:18:36;8.75;;;2.63;;
18783;SDS011;9520;50.954;6.968;2023-04-30T00:18:59;3.22;;;2.22;;
18783;SDS011;9520;50.954;6.968;2023-04-30T00:19:26;3.17;;;2.00;;
18783;SDS011;9520;50.954;6.968;2023-04-30T00:19:50;3.37;;;2.50;;
18783;SDS011;9520;50.954;6.968;2023-04-30T00:20:43;4.35;;;2.20;;
18783;SDS011;9520;50.954;6.968;2023-04-30T00:21:10;2.55;;;1.90;;
18783;SDS011;9520;50.954;6.968;2023-04-30T00:21:32;3.05;;;2.10;;
18783;SDS011;9520;50.954;6.968;2023-04-30T00:21:55;3.25;;;2.25;;
18783;SDS011;9520;50.954;6.968;2023-04-30T00:22:17;3.33;;;2.08;;
18783;SDS011;9520;50.954;6.968;2023-04-30T00:22:40;5.88;;;2.47;;
18783;SDS011;9520;50.954;6.968;2023-04-30T00:23:02;7.30;;;2.38;;
18783;SDS011;9520;50.954;6.968;2023-04-30T00:23:24;4.00;;;2.13;;
18783;SDS011;9520;50.954;6.968;2023-04-30T00:23:46;4.43;;;2.25;;
18783;SDS011;9520;50.954;6.968;2023-04-30T00:24:09;4.22;;;2.38;;
18783;SDS011;9520;50.954;6.968;2023-04-30T00:24:31;5.93;;;2.55;;
18783;SDS011;9520;50.954;6.968;2023-04-30T00:24:53;4.68;;;1.67;;
18783;SDS011;9520;50.954;6.968;2023-04-30T00:25:16;2.35;;;1.63;;
18783;SDS011;9520;50.954;6.968;2023-04-30T00:25:39;2.45;;;1.70;;
18783;SDS011;9520;50.954;6.968;2023-04-30T00:26:01;3.55;;;2.20;;
18783;SDS011;9520;50.954;6.968;2023-04-30T00:26:23;2.88;;;1.92;;
18783;SDS011;9520;50.954;6.968;2023-04-30T00:26:47;3.28;;;2.10;;
18783;SDS011;9520;50.954;6.968;2023-04-30T00:27:11;2.88;;;1.67;;
18783;SDS011;9520;50.954;6.968;2023-04-30T00:27:33;5.95;;;2.10;;
18783;SDS011;9520;50.954;6.968;2023-04-30T00:27:55;7.80;;;2.15;;
18783;SDS011;9520;50.954;6.968;2023-04-30T00:28:17;4.05;;;2.38;;
18783;SDS011;9520;50.954;6.968;2023-04-30T00:28:40;3.53;;;2.45;;
18783;SDS011;9520;50.954;6.968;2023-04-30T00:29:02;4.50;;;1.98;;
18783;SDS011;9520;50.954;6.968;2023-04-30T00:29:25;4.18;;;2.00;;
18783;SDS011;9520;50.954;6.968;2023-04-30T00:29:47;2.03;;;1.60;;
18783;SDS011;9520;50.954;6.968;2023-04-30T00:30:11;2.17;;;1.70;;
18783;SDS011;9520;50.954;6.968;2023-04-30T00:30:34;3.95;;;2.20;;
18783;SDS011;9520;50.954;6.968;2023-04-30T00:30:56;4.65;;;1.95;;
18783;SDS011;9520;50.954;6.968;2023-04-30T00:31:18;3.47;;;2.13;;
18783;SDS011;9520;50.954;6.968;2023-04-30T00:31:41;3.13;;;2.20;;
18783;SDS011;9520;50.954;6.968;2023-04-30T00:32:06;2.92;;;1.80;;
18783;SDS011;9520;50.954;6.968;2023-04-30T00:32:30;4.25;;;2.13;;
18783;SDS011;9520;50.954;6.968;2023-04-30T00:32:52;3.80;;;2.15;;
18783;SDS011;9520;50.954;6.968;2023-04-30T00:33:18;3.28;;;1.77;;
18783;SDS011;9520;50.954;6.968;2023-04-30T00:33:40;3.22;;;1.90;;
18783;SDS011;9520;50.954;6.968;2023-04-30T00:34:04;7.18;;;2.63;;
18783;SDS011;9520;50.954;6.968;2023-04-30T00:34:26;3.45;;;1.95;;
18783;SDS011;9520;50.954;6.968;2023-04-30T00:34:50;7.18;;;2.40;;
18783;SDS011;9520;50.954;6.968;2023-04-30T00:35:12;4.00;;;1.60;;
18783;SDS011;9520;50.954;6.968;2023-04-30T00:35:35;3.30;;;2.08;;
18783;SDS011;9520;50.954;6.968;2023-04-30T00:36:00;2.53;;;1.83;;
18783;SDS011;9520;50.954;6.968;2023-04-30T00:36:23;4.22;;;2.05;;
18783;SDS011;9520;50.954;6.968;2023-04-30T00:36:47;5.40;;;2.42;;
18783;SDS011;9520;50.954;6.968;2023-04-30T00:37:09;1.92;;;1.40;;
18783;SDS011;9520;50.954;6.968;2023-04-30T00:37:33;2.95;;;2.00;;
18783;SDS011;9520;50.954;6.968;2023-04-30T00:37:58;7.78;;;2.40;;
18783;SDS011;9520;50.954;6.968;2023-04-30T00:38:20;6.43;;;1.65;;
18783;SDS011;9520;50.954;6.968;2023-04-30T00:38:42;2.40;;;1.90;;
18783;SDS011;9520;50.954;6.968;2023-04-30T00:39:04;3.70;;;2.28;;
18783;SDS011;9520;50.954;6.968;2023-04-30T00:39:27;3.78;;;2.22;;
18783;SDS011;9520;50.954;6.968;2023-04-30T00:39:49;3.88;;;2.05;;
18783;SDS011;9520;50.954;6.968;2023-04-30T00:40:11;1.95;;;1.58;;
18783;SDS011;9520;50.954;6.968;2023-04-30T00:40:33;5.07;;;2.20;;
18783;SDS011;9520;50.954;6.968;2023-04-30T00:40:56;3.72;;;2.17;;
18783;SDS011;9520;50.954;6.968;2023-04-30T00:41:18;3.00;;;1.77;;
18783;SDS011;9520;50.954;6.968;2023-04-30T00:41:42;2.17;;;1.77;;
18783;SDS011;9520;50.954;6.968;2023-04-30T00:42:05;2.80;;;2.10;;
18783;SDS011;9520;50.954;6.968;2023-04-30T00:42:28;2.50;;;1.88;;
18783;SDS011;9520;50.954;6.968;2023-04-30T00:42:50;3.00;;;1.95;;
18783;SDS011;9520;50.954;6.968;2023-04-30T00:43:13;4.20;;;2.25;;
18783;SDS011;9520;50.954;6.968;2023-04-30T00:43:36;3.38;;;2.17;;
18783;SDS011;9520;50.954;6.968;2023-04-30T00:44:01;2.42;;;1.90;;
18783;SDS011;9520;50.954;6.968;2023-04-30T00:44:24;3.75;;;1.90;;
18783;SDS011;9520;50.954;6.968;2023-04-30T00:44:47;3.50;;;1.92;;
18783;SDS011;9520;50.954;6.968;2023-04-30T00:45:13;3.13;;;2.10;;
18783;SDS011;9520;50.954;6.968;2023-04-30T00:45:38;2.33;;;1.85;;
18783;SDS011;9520;50.954;6.968;2023-04-30T00:46:02;3.92;;;2.03;;
18783;SDS011;9520;50.954;6.968;2023-04-30T00:46:27;4.55;;;2.30;;
18783;SDS011;9520;50.954;6.968;2023-04-30T00:46:52;4.38;;;2.30;;
18783;SDS011;9520;50.954;6.968;2023-04-30T00:47:16;5.50;;;1.83;;
18783;SDS011;9520;50.954;6.968;2023-04-30T00:47:38;4.50;;;2.05;;
18783;SDS011;9520;50.954;6.968;2023-04-30T00:48:00;4.47;;;1.98;;
18783;SDS011;9520;50.954;6.968;2023-04-30T00:48:25;4.72;;;2.00;;
18783;SDS011;9520;50.954;6.968;2023-04-30T00:48:49;3.70;;;1.98;;
18783;SDS011;9520;50.954;6.968;2023-04-30T00:49:11;5.05;;;2.38;;
18783;SDS011;9520;50.954;6.968;2023-04-30T00:49:33;4.88;;;2.05;;
18783;SDS011;9520;50.954;6.968;2023-04-30T00:49:56;3.53;;;1.98;;
18783;SDS011;9520;50.954;6.968;2023-04-30T00:50:21;2.58;;;1.80;;
18783;SDS011;9520;50.954;6.968;2023-04-30T00:50:45;2.25;;;1.60;;
18783;SDS011;9520;50.954;6.968;2023-04-30T00:51:09;2.60;;;2.00;;
18783;SDS011;9520;50.954;6.968;2023-04-30T00:51:32;5.18;;;2.30;;
18783;SDS011;9520;50.954;6.968;2023-04-30T00:51:55;3.35;;;1.88;;
18783;SDS011;9520;50.954;6.968;2023-04-30T00:52:20;3.20;;;2.08;;
18783;SDS011;9520;50.954;6.968;2023-04-30T00:52:46;2.88;;;2.10;;
18783;SDS011;9520;50.954;6.968;2023-04-30T00:53:09;4.25;;;2.35;;
18783;SDS011;9520;50.954;6.968;2023-04-30T00:53:34;4.13;;;1.63;;
18783;SDS011;9520;50.954;6.968;2023-04-30T00:53:59;4.30;;;2.22;;
18783;SDS011;9520;50.954;6.968;2023-04-30T00:54:23;2.30;;;1.80;;
18783;SDS011;9520;50.954;6.968;2023-04-30T00:54:48;4.70;;;2.00;;
18783;SDS011;9520;50.954;6.968;2023-04-30T00:55:12;3.75;;;1.73;;
18783;SDS011;9520;50.954;6.968;2023-04-30T00:55:36;2.17;;;1.87;;
18783;SDS011;9520;50.954;6.968;2023-04-30T00:56:00;3.03;;;1.88;;
18783;SDS011;9520;50.954;6.968;2023-04-30T00:56:23;4.65;;;2.42;;
18783;SDS011;9520;50.954;6.968;2023-04-30T00:56:46;3.90;;;2.30;;
18783;SDS011;9520;50.954;6.968;2023-04-30T00:57:10;3.13;;;2.08;;
18783;SDS011;9520;50.954;6.968;2023-04-30T00:57:33;2.90;;;1.70;;
18783;SDS011;9520;50.954;6.968;2023-04-30T00:57:58;5.78;;;2.08;;
18783;SDS011;9520;50.954;6.968;2023-04-30T00:58:21;3.88;;;1.75;;
18783;SDS011;9520;50.954;6.968;2023-04-30T00:58:44;2.47;;;1.60;;
18783;SDS011;9520;50.954;6.968;2023-04-30T00:59:07;2.00;;;1.40;;
18783;SDS011;9520;50.954;6.968;2023-04-30T00:59:30;2.85;;;1.80;;
18783;SDS011;9520;50.954;6.968;2023-04-30T00:59:54;4.65;;;1.90;;
18783;SDS011;9520;50.954;6.968;2023-04-30T01:00:17;4.65;;;2.60;;
18783;SDS011;9520;50.954;6.968;2023-04-30T01:00:39;3.03;;;2.00;;
18783;SDS011;9520;50.954;6.968;2023-04-30T01:01:07;3.50;;;1.85;;
18783;SDS011;9520;50.954;6.968;2023-04-30T01:01:30;2.53;;;1.88;;
18783;SDS011;9520;50.954;6.968;2023-04-30T01:01:56;4.25;;;2.58;;
18783;SDS011;9520;50.954;6.968;2023-04-30T01:02:20;4.18;;;2.65;;
18783;SDS011;9520;50.954;6.968;2023-04-30T01:02:44;3.20;;;1.98;;
18783;SDS011;9520;50.954;6.968;2023-04-30T01:03:06;3.15;;;2.05;;
18783;SDS011;9520;50.954;6.968;2023-04-30T01:03:29;3.45;;;2.00;;
18783;SDS011;9520;50.954;6.968;2023-04-30T01:03:51;3.38;;;2.10;;
18783;SDS011;9520;50.954;6.968;2023-04-30T01:04:14;3.22;;;1.77;;
18783;SDS011;9520;50.954;6.968;2023-04-30T01:04:37;4.03;;;2.30;;
18783;SDS011;9520;50.954;6.968;2023-04-30T01:05:00;2.35;;;1.83;;
18783;SDS011;9520;50.954;6.968;2023-04-30T01:05:23;2.70;;;2.00;;
18783;SDS011;9520;50.954;6.968;2023-04-30T01:05:45;2.60;;;2.10;;
18783;SDS011;9520;50.954;6.968;2023-04-30T01:06:12;2.45;;;1.92;;
18783;SDS011;9520;50.954;6.968;2023-04-30T01:06:37;2.30;;;1.92;;
18783;SDS011;9520;50.954;6.968;2023-04-30T01:07:00;5.20;;;2.10;;
18783;SDS011;9520;50.954;6.968;2023-04-30T01:07:24;4.72;;;2.10;;
18783;SDS011;9520;50.954;6.968;2023-04-30T01:07:48;4.90;;;1.88;;
18783;SDS011;9520;50.954;6.968;2023-04-30T01:08:12;3.43;;;1.80;;
18783;SDS011;9520;50.954;6.968;2023-04-30T01:08:35;3.15;;;1.88;;
18783;SDS011;9520;50.954;6.968;2023-04-30T01:08:57;2.60;;;1.80;;
18783;SDS011;9520;50.954;6.968;2023-04-30T01:09:20;4.10;;;2.25;;
18783;SDS011;9520;50.954;6.968;2023-04-30T01:09:42;4.80;;;2.10;;
18783;SDS011;9520;50.954;6.968;2023-04-30T01:10:07;4.63;;;2.03;;
18783;SDS011;9520;50.954;6.968;2023-04-30T01:10:31;2.17;;;1.65;;
18783;SDS011;9520;50.954;6.968;2023-04-30T01:11:06;3.58;;;2.00;;
18783;SDS011;9520;50.954;6.968;2023-04-30T01:11:39;2.83;;;1.60;;
18783;SDS011;9520;50.954;6.968;2023-04-30T01:12:17;4.75;;;2.40;;
18783;SDS011;9520;50.954;6.968;2023-04-30T01:12:52;5.65;;;2.40;;
18783;SDS011;9520;50.954;6.968;2023-04-30T01:13:21;3.30;;;1.90;;
18783;SDS011;9520;50.954;6.968;2023-04-30T01:13:52;2.17;;;1.70;;
18783;SDS011;9520;50.954;6.968;2023-04-30T01:14:24;9.43;;;2.03;;
18783;SDS011;9520;50.954;6.968;2023-04-30T01:15:00;2.50;;;1.58;;
18783;SDS011;9520;50.954;6.968;2023-04-30T01:15:32;3.55;;;1.80;;
18783;SDS011;9520;50.954;6.968;2023-04-30T01:16:04;6.40;;;2.10;;
18783;SDS011;9520;50.954;6.968;2023-04-30T01:16:40;3.95;;;2.03;;
18783;SDS011;9520;50.954;6.968;2023-04-30T01:17:12;5.65;;;1.52;;
18783;SDS011;9520;50.954;6.968;2023-04-30T01:17:45;2.58;;;1.60;;
18783;SDS011;9520;50.954;6.968;2023-04-30T01:18:13;8.70;;;2.70;;
18783;SDS011;9520;50.954;6.968;2023-04-30T01:18:43;3.13;;;1.83;;
18783;SDS011;9520;50.954;6.968;2023-04-30T01:19:15;2.08;;;1.65;;
18783;SDS011;9520;50.954;6.968;2023-04-30T01:19:51;2.58;;;1.60;;
18783;SDS011;9520;50.954;6.968;2023-04-30T01:20:16;2.47;;;1.80;;
18783;SDS011;9520;50.954;6.968;2023-04-30T01:20:42;2.40;;;1.55;;
18783;SDS011;9520;50.954;6.968;2023-04-30T01:21:14;2.20;;;1.50;;
18783;SDS011;9520;50.954;6.968;2023-04-30T01:21:43;2.28;;;1.58;;
18783;SDS011;9520;50.954;6.968;2023-04-30T01:22:05;2.40;;;1.58;;
18783;SDS011;9520;50.954;6.968;2023-04-30T01:22:35;2.05;;;1.70;;
18783;SDS011;9520;50.954;6.968;2023-04-30T01:23:07;2.58;;;1.80;;
18783;SDS011;9520;50.954;6.968;2023-04-30T01:23:41;3.60;;;2.03;;
18783;SDS011;9520;50.954;6.968;2023-04-30T01:24:20;2.38;;;1.55;;
18783;SDS011;9520;50.954;6.968;2023-04-30T01:25:06;2.70;;;1.63;;
18783;SDS011;9520;50.954;6.968;2023-04-30T01:25:43;2.85;;;1.83;;
18783;SDS011;9520;50.954;6.968;2023-04-30T01:26:14;3.20;;;1.85;;
18783;SDS011;9520;50.954;6.968;2023-04-30T01:26:47;1.75;;;1.30;;
18783;SDS011;9520;50.954;6.968;2023-04-30T01:27:22;2.42;;;1.55;;
18783;SDS011;9520;50.954;6.968;2023-04-30T01:28:00;3.60;;;1.80;;
18783;SDS011;9520;50.954;6.968;2023-04-30T01:28:24;3.15;;;1.50;;
18783;SDS011;9520;50.954;6.968;2023-04-30T01:28:50;1.98;;;1.45;;
18783;SDS011;9520;50.954;6.968;2023-04-30T01:29:14;6.85;;;1.60;;
18783;SDS011;9520;50.954;6.968;2023-04-30T01:29:39;1.42;;;1.15;;
18783;SDS011;9520;50.954;6.968;2023-04-30T01:30:03;1.90;;;1.38;;
18783;SDS011;9520;50.954;6.968;2023-04-30T01:30:29;1.65;;;1.42;;
18783;SDS011;9520;50.954;6.968;2023-04-30T01:30:52;1.50;;;1.20;;
18783;SDS011;9520;50.954;6.968;2023-04-30T01:31:17;1.73;;;1.30;;
18783;SDS011;9520;50.954;6.968;2023-04-30T01:31:42;2.50;;;1.52;;
18783;SDS011;9520;50.954;6.968;2023-04-30T01:32:06;2.35;;;1.67;;
18783;SDS011;9520;50.954;6.968;2023-04-30T01:32:28;2.42;;;1.23;;
18783;SDS011;9520;50.954;6.968;2023-04-30T01:32:50;2.53;;;1.33;;
18783;SDS011;9520;50.954;6.968;2023-04-30T01:33:12;2.97;;;1.42;;
18783;SDS011;9520;50.954;6.968;2023-04-30T01:33:38;2.63;;;1.58;;
18783;SDS011;9520;50.954;6.968;2023-04-30T01:34:02;1.98;;;1.55;;
18783;SDS011;9520;50.954;6.968;2023-04-30T01:34:25;1.73;;;1.48;;
18783;SDS011;9520;50.954;6.968;2023-04-30T01:34:47;2.72;;;1.75;;
18783;SDS011;9520;50.954;6.968;2023-04-30T01:35:09;2.07;;;1.67;;
18783;SDS011;9520;50.954;6.968;2023-04-30T01:35:48;2.08;;;1.60;;
18783;SDS011;9520;50.954;6.968;2023-04-30T01:36:43;2.53;;;1.63;;
18783;SDS011;9520;50.954;6.968;2023-04-30T01:37:14;2.92;;;1.50;;
18783;SDS011;9520;50.954;6.968;2023-04-30T01:37:46;2.75;;;1.67;;
18783;SDS011;9520;50.954;6.968;2023-04-30T01:38:24;2.85;;;1.40;;
18783;SDS011;9520;50.954;6.968;2023-04-30T01:39:01;2.33;;;1.67;;
18783;SDS011;9520;50.954;6.968;2023-04-30T01:39:38;3.38;;;1.88;;
18783;SDS011;9520;50.954;6.968;2023-04-30T01:40:17;2.55;;;1.50;;
18783;SDS011;9520;50.954;6.968;2023-04-30T01:40:52;2.70;;;1.33;;
18783;SDS011;9520;50.954;6.968;2023-04-30T01:41:27;1.85;;;1.40;;
18783;SDS011;9520;50.954;6.968;2023-04-30T01:41:54;2.17;;;1.50;;
18783;SDS011;9520;50.954;6.968;2023-04-30T01:42:28;1.98;;;1.23;;
18783;SDS011;9520;50.954;6.968;2023-04-30T01:43:00;2.80;;;1.30;;
18783;SDS011;9520;50.954;6.968;2023-04-30T01:43:32;2.72;;;1.60;;
18783;SDS011;9520;50.954;6.968;2023-04-30T01:44:05;3.17;;;1.58;;
18783;SDS011;9520;50.954;6.968;2023-04-30T01:44:57;4.43;;;1.92;;
18783;SDS011;9520;50.954;6.968;2023-04-30T01:45:39;2.63;;;1.42;;
18783;SDS011;9520;50.954;6.968;2023-04-30T01:46:17;2.60;;;1.50;;
18783;SDS011;9520;50.954;6.968;2023-04-30T01:46:45;1.80;;;1.38;;
18783;SDS011;9520;50.954;6.968;2023-04-30T01:47:19;2.25;;;1.65;;
18783;SDS011;9520;50.954;6.968;2023-04-30T01:47:50;1.35;;;1.20;;
18783;SDS011;9520;50.954;6.968;2023-04-30T01:48:18;2.05;;;1.45;;
18783;SDS011;9520;50.954;6.968;2023-04-30T01:48:50;2.20;;;1.45;;
18783;SDS011;9520;50.954;6.968;2023-04-30T01:49:21;2.10;;;1.73;;
18783;SDS011;9520;50.954;6.968;2023-04-30T01:49:55;2.13;;;1.55;;
18783;SDS011;9520;50.954;6.968;2023-04-30T01:50:24;2.10;;;1.50;;
18783;SDS011;9520;50.954;6.968;2023-04-30T01:50:51;2.65;;;1.65;;
18783;SDS011;9520;50.954;6.968;2023-04-30T01:51:22;1.90;;;1.70;;
18783;SDS011;9520;50.954;6.968;2023-04-30T01:51:52;3.67;;;1.73;;
18783;SDS011;9520;50.954;6.968;2023-04-30T01:52:27;4.20;;;1.65;;
18783;SDS011;9520;50.954;6.968;2023-04-30T01:52:58;2.13;;;1.52;;
18783;SDS011;9520;50.954;6.968;2023-04-30T01:53:23;3.97;;;1.70;;
18783;SDS011;9520;50.954;6.968;2023-04-30T01:53:55;1.80;;;1.40;;
18783;SDS011;9520;50.954;6.968;2023-04-30T01:54:22;2.28;;;1.55;;
18783;SDS011;9520;50.954;6.968;2023-04-30T01:54:52;1.98;;;1.52;;
18783;SDS011;9520;50.954;6.968;2023-04-30T01:55:22;1.95;;;1.65;;
18783;SDS011;9520;50.954;6.968;2023-04-30T01:55:49;6.20;;;1.70;;
18783;SDS011;9520;50.954;6.968;2023-04-30T01:56:20;3.95;;;1.20;;
18783;SDS011;9520;50.954;6.968;2023-04-30T01:56:48;2.55;;;1.38;;
18783;SDS011;9520;50.954;6.968;2023-04-30T01:57:20;3.45;;;1.50;;
18783;SDS011;9520;50.954;6.968;2023-04-30T01:57:49;4.78;;;1.85;;
18783;SDS011;9520;50.954;6.968;2023-04-30T01:58:22;2.78;;;1.65;;
18783;SDS011;9520;50.954;6.968;2023-04-30T01:58:45;2.33;;;1.70;;
18783;SDS011;9520;50.954;6.968;2023-04-30T01:59:10;2.80;;;1.60;;
18783;SDS011;9520;50.954;6.968;2023-04-30T01:59:35;2.10;;;1.23;;
18783;SDS011;9520;50.954;6.968;2023-04-30T01:59:59;1.67;;;1.30;;
18783;SDS011;9520;50.954;6.968;2023-04-30T02:00:33;1.35;;;1.25;;
18783;SDS011;9520;50.954;6.968;2023-04-30T02:00:55;2.55;;;1.77;;
18783;SDS011;9520;50.954;6.968;2023-04-30T02:01:27;2.20;;;1.60;;
18783;SDS011;9520;50.954;6.968;2023-04-30T02:01:50;3.28;;;2.00;;
18783;SDS011;9520;50.954;6.968;2023-04-30T02:02:14;2.15;;;1.60;;
18783;SDS011;9520;50.954;6.968;2023-04-30T02:02:36;1.50;;;1.17;;
18783;SDS011;9520;50.954;6.968;2023-04-30T02:02:59;2.63;;;1.48;;
18783;SDS011;9520;50.954;6.968;2023-04-30T02:03:23;1.73;;;1.35;;
18783;SDS011;9520;50.954;6.968;2023-04-30T02:03:45;1.65;;;1.27;;
18783;SDS011;9520;50.954;6.968;2023-04-30T02:04:08;1.63;;;1.33;;
18783;SDS011;9520;50.954;6.968;2023-04-30T02:04:31;4.30;;;1.52;;
18783;SDS011;9520;50.954;6.968;2023-04-30T02:04:54;3.00;;;1.70;;
18783;SDS011;9520;50.954;6.968;2023-04-30T02:05:16;2.10;;;1.38;;
18783;SDS011;9520;50.954;6.968;2023-04-30T02:05:41;1.75;;;1.45;;
18783;SDS011;9520;50.954;6.968;2023-04-30T02:06:04;1.90;;;1.33;;
18783;SDS011;9520;50.954;6.968;2023-04-30T02:06:26;1.45;;;1.35;;
18783;SDS011;9520;50.954;6.968;2023-04-30T02:06:50;1.90;;;1.40;;
18783;SDS011;9520;50.954;6.968;2023-04-30T02:07:16;2.08;;;1.13;;
18783;SDS011;9520;50.954;6.968;2023-04-30T02:07:50;2.78;;;1.60;;
18783;SDS011;9520;50.954;6.968;2023-04-30T02:08:13;2.47;;;1.55;;
18783;SDS011;9520;50.954;6.968;2023-04-30T02:08:35;3.38;;;1.75;;
18783;SDS011;9520;50.954;6.968;2023-04-30T02:08:59;1.42;;;1.30;;
18783;SDS011;9520;50.954;6.968;2023-04-30T02:09:25;2.15;;;1.52;;
18783;SDS011;9520;50.954;6.968;2023-04-30T02:09:48;2.65;;;1.88;;
18783;SDS011;9520;50.954;6.968;2023-04-30T02:10:11;2.35;;;1.55;;
18783;SDS011;9520;50.954;6.968;2023-04-30T02:10:39;2.45;;;1.25;;
18783;SDS011;9520;50.954;6.968;2023-04-30T02:11:04;1.75;;;1.30;;
18783;SDS011;9520;50.954;6.968;2023-04-30T02:11:26;2.10;;;1.40;;
18783;SDS011;9520;50.954;6.968;2023-04-30T02:11:50;3.75;;;1.77;;
18783;SDS011;9520;50.954;6.968;2023-04-30T02:12:14;1.63;;;1.50;;
18783;SDS011;9520;50.954;6.968;2023-04-30T02:12:37;2.50;;;1.63;;
18783;SDS011;9520;50.954;6.968;2023-04-30T02:12:59;2.78;;;1.75;;
18783;SDS011;9520;50.954;6.968;2023-04-30T02:13:32;1.33;;;1.23;;
18783;SDS011;9520;50.954;6.968;2023-04-30T02:14:02;2.08;;;1.27;;
18783;SDS011;9520;50.954;6.968;2023-04-30T02:14:25;3.40;;;1.45;;
18783;SDS011;9520;50.954;6.968;2023-04-30T02:14:48;1.70;;;1.15;;
18783;SDS011;9520;50.954;6.968;2023-04-30T02:15:10;1.80;;;1.35;;
18783;SDS011;9520;50.954;6.968;2023-04-30T02:15:35;2.67;;;1.80;;
18783;SDS011;9520;50.954;6.968;2023-04-30T02:15:57;2.08;;;1.42;;
18783;SDS011;9520;50.954;6.968;2023-04-30T02:16:19;2.05;;;1.50;;
18783;SDS011;9520;50.954;6.968;2023-04-30T02:16:42;1.40;;;1.23;;
18783;SDS011;9520;50.954;6.968;2023-04-30T02:17:05;1.60;;;1.33;;
18783;SDS011;9520;50.954;6.968;2023-04-30T02:17:27;2.67;;;1.65;;
18783;SDS011;9520;50.954;6.968;2023-04-30T02:17:52;2.05;;;1.48;;
18783;SDS011;9520;50.954;6.968;2023-04-30T02:18:16;2.42;;;1.30;;
18783;SDS011;9520;50.954;6.968;2023-04-30T02:18:39;2.60;;;1.50;;
18783;SDS011;9520;50.954;6.968;2023-04-30T02:19:01;3.17;;;1.75;;
18783;SDS011;9520;50.954;6.968;2023-04-30T02:19:24;1.92;;;1.38;;
18783;SDS011;9520;50.954;6.968;2023-04-30T02:19:47;2.08;;;1.45;;
18783;SDS011;9520;50.954;6.968;2023-04-30T02:20:09;1.98;;;1.15;;
18783;SDS011;9520;50.954;6.968;2023-04-30T02:20:34;2.72;;;1.15;;
18783;SDS011;9520;50.954;6.968;2023-04-30T02:20:56;1.50;;;1.30;;
18783;SDS011;9520;50.954;6.968;2023-04-30T02:21:18;1.90;;;1.45;;
18783;SDS011;9520;50.954;6.968;2023-04-30T02:21:43;1.92;;;1.58;;
18783;SDS011;9520;50.954;6.968;2023-04-30T02:22:08;4.35;;;1.50;;
18783;SDS011;9520;50.954;6.968;2023-04-30T02:22:31;3.40;;;1.42;;
18783;SDS011;9520;50.954;6.968;2023-04-30T02:22:53;3.70;;;1.83;;
18783;SDS011;9520;50.954;6.968;2023-04-30T02:23:15;3.05;;;1.45;;
18783;SDS011;9520;50.954;6.968;2023-04-30T02:23:38;1.38;;;1.00;;
18783;SDS011;9520;50.954;6.968;2023-04-30T02:24:06;2.55;;;1.42;;
18783;SDS011;9520;50.954;6.968;2023-04-30T02:24:28;1.90;;;1.20;;
18783;SDS011;9520;50.954;6.968;2023-04-30T02:24:52;2.33;;;1.45;;
18783;SDS011;9520;50.954;6.968;2023-04-30T02:25:16;2.72;;;1.63;;
18783;SDS011;9520;50.954;6.968;2023-04-30T02:25:42;2.72;;;1.90;;
18783;SDS011;9520;50.954;6.968;2023-04-30T02:26:05;2.95;;;1.50;;
18783;SDS011;9520;50.954;6.968;2023-04-30T02:26:27;3.60;;;1.73;;
18783;SDS011;9520;50.954;6.968;2023-04-30T02:26:50;3.42;;;1.35;;
18783;SDS011;9520;50.954;6.968;2023-04-30T02:27:17;1.90;;;1.35;;
18783;SDS011;9520;50.954;6.968;2023-04-30T02:27:41;1.77;;;1.27;;
18783;SDS011;9520;50.954;6.968;2023-04-30T02:28:04;1.42;;;1.27;;
18783;SDS011;9520;50.954;6.968;2023-04-30T02:28:31;1.17;;;1.05;;
18783;SDS011;9520;50.954;6.968;2023-04-30T02:28:57;2.13;;;1.60;;
18783;SDS011;9520;50.954;6.968;2023-04-30T02:29:22;3.97;;;1.50;;
18783;SDS011;9520;50.954;6.968;2023-04-30T02:29:44;2.40;;;1.15;;
18783;SDS011;9520;50.954;6.968;2023-04-30T02:30:09;2.85;;;1.25;;
18783;SDS011;9520;50.954;6.968;2023-04-30T02:30:33;6.35;;;1.70;;
18783;SDS011;9520;50.954;6.968;2023-04-30T02:30:59;1.52;;;1.35;;
18783;SDS011;9520;50.954;6.968;2023-04-30T02:31:24;1.20;;;1.10;;
18783;SDS011;9520;50.954;6.968;2023-04-30T02:31:46;1.15;;;1.05;;
18783;SDS011;9520;50.954;6.968;2023-04-30T02:32:08;1.20;;;1.10;;
18783;SDS011;9520;50.954;6.968;2023-04-30T02:32:30;3.38;;;1.48;;
18783;SDS011;9520;50.954;6.968;2023-04-30T02:32:57;2.20;;;1.40;;
18783;SDS011;9520;50.954;6.968;2023-04-30T02:33:23;2.30;;;1.10;;
18783;SDS011;9520;50.954;6.968;2023-04-30T02:33:45;2.08;;;1.10;;
18783;SDS011;9520;50.954;6.968;2023-04-30T02:34:07;1.48;;;1.27;;
18783;SDS011;9520;50.954;6.968;2023-04-30T02:34:33;1.17;;;0.90;;
18783;SDS011;9520;50.954;6.968;2023-04-30T02:34:57;1.98;;;1.45;;
18783;SDS011;9520;50.954;6.968;2023-04-30T02:35:20;1.90;;;1.35;;
18783;SDS011;9520;50.954;6.968;2023-04-30T02:35:43;2.20;;;1.58;;
18783;SDS011;9520;50.954;6.968;2023-04-30T02:36:11;1.85;;;1.58;;
18783;SDS011;9520;50.954;6.968;2023-04-30T02:36:33;2.55;;;1.50;;